createdAt,value
2022-10-02T00:01:27.688Z,7.18
2022-10-02T00:03:57.856Z,7.18
2022-10-02T00:06:28.775Z,5.32
2022-10-02T00:09:00.650Z,4.80
2022-10-02T00:11:44.125Z,6.55
2022-10-02T00:14:15.866Z,4.85
2022-10-02T00:16:57.311Z,4.18
2022-10-02T00:19:25.108Z,4.90
2022-10-02T00:22:22.180Z,6.75
2022-10-02T00:25:11.932Z,7.10
2022-10-02T00:27:45.811Z,9.00
2022-10-02T00:30:17.775Z,9.68
2022-10-02T00:33:25.322Z,8.15
2022-10-02T00:36:24.641Z,7.70
2022-10-02T00:39:14.521Z,8.35
2022-10-02T00:42:03.176Z,5.97
2022-10-02T00:44:52.711Z,3.60
2022-10-02T00:47:43.961Z,3.90
2022-10-02T00:50:18.205Z,3.95
2022-10-02T00:53:03.050Z,3.83
2022-10-02T00:55:40.938Z,3.03
2022-10-02T00:58:08.450Z,3.17
2022-10-02T01:00:36.261Z,2.30
2022-10-02T01:03:23.906Z,2.92
2022-10-02T01:05:51.960Z,3.75
2022-10-02T01:08:19.585Z,2.83
2022-10-02T01:10:48.276Z,2.85
2022-10-02T01:13:16.301Z,3.97
2022-10-02T01:15:53.004Z,2.65
2022-10-02T01:18:21.239Z,3.33
2022-10-02T01:20:52.904Z,3.80
2022-10-02T01:23:37.744Z,3.72
2022-10-02T01:26:06.766Z,3.33
2022-10-02T01:28:34.584Z,4.00
2022-10-02T01:31:07.826Z,2.90
2022-10-02T01:33:37.396Z,2.83
2022-10-02T01:36:06.310Z,3.58
2022-10-02T01:38:34.913Z,2.58
2022-10-02T01:41:02.663Z,1.65
2022-10-02T01:43:45.113Z,2.33
2022-10-02T01:46:24.807Z,1.92
2022-10-02T01:49:17.539Z,2.08
2022-10-02T01:51:46.364Z,1.55
2022-10-02T01:54:14.122Z,2.22
2022-10-02T01:56:51.633Z,3.00
2022-10-02T01:59:34.502Z,4.15
2022-10-02T02:02:08.403Z,2.92
2022-10-02T02:04:41.940Z,2.83
2022-10-02T02:07:35.751Z,3.10
2022-10-02T02:10:24.193Z,4.63
2022-10-02T02:13:01.792Z,3.40
2022-10-02T02:15:40.355Z,3.40
2022-10-02T02:18:17.518Z,2.65
2022-10-02T02:20:51.767Z,3.53
2022-10-02T02:23:25.471Z,2.75
2022-10-02T02:25:59.480Z,3.13
2022-10-02T02:28:29.897Z,2.15
2022-10-02T02:31:00.876Z,1.85
2022-10-02T02:33:36.980Z,2.13
2022-10-02T02:36:11.169Z,3.87
2022-10-02T02:38:46.152Z,1.80
2022-10-02T02:41:19.503Z,3.60
2022-10-02T02:43:56.586Z,3.33
2022-10-02T02:47:06.974Z,3.92
2022-10-02T02:49:37.852Z,6.65
2022-10-02T02:52:10.371Z,2.92
2022-10-02T02:54:47.879Z,3.97
2022-10-02T02:57:20.270Z,3.35
2022-10-02T02:59:51.336Z,2.20
2022-10-02T03:02:19.124Z,2.42
2022-10-02T03:04:46.851Z,2.58
2022-10-02T03:07:17.486Z,1.98
2022-10-02T03:10:05.558Z,2.15
2022-10-02T03:12:51.845Z,1.45
2022-10-02T03:15:29.835Z,1.55
2022-10-02T03:18:13.517Z,3.75
2022-10-02T03:20:52.602Z,1.88
2022-10-02T03:23:54.307Z,2.97
2022-10-02T03:26:29.616Z,2.80
2022-10-02T03:29:02.598Z,2.25
2022-10-02T03:31:33.722Z,2.25
2022-10-02T03:34:03.792Z,1.63
2022-10-02T03:36:31.870Z,1.85
2022-10-02T03:41:50.480Z,2.00
2022-10-02T03:44:18.089Z,1.15
2022-10-02T03:46:46.092Z,1.60
2022-10-02T03:49:13.824Z,1.50
2022-10-02T03:51:41.579Z,2.67
2022-10-02T03:54:20.846Z,1.75
2022-10-02T03:57:01.639Z,1.95
2022-10-02T03:59:43.246Z,0.65
2022-10-02T04:02:29.417Z,1.10
2022-10-02T04:05:05.590Z,2.05
2022-10-02T04:07:39.926Z,1.47
2022-10-02T04:10:13.571Z,1.25
2022-10-02T04:12:52.382Z,2.17
2022-10-02T04:15:26.950Z,2.03
2022-10-02T04:18:05.095Z,2.38
2022-10-02T04:20:51.892Z,1.63
2022-10-02T04:23:38.326Z,4.78
2022-10-02T04:26:17.099Z,2.13
2022-10-02T04:28:51.626Z,2.65
2022-10-02T04:31:19.368Z,1.20
2022-10-02T04:33:47.145Z,3.33
2022-10-02T04:37:02.993Z,2.20
2022-10-02T04:39:30.543Z,2.40
2022-10-02T04:42:04.288Z,3.00
2022-10-02T04:45:09.820Z,1.00
2022-10-02T04:47:46.690Z,2.78
2022-10-02T04:50:42.449Z,2.05
2022-10-02T04:53:58.351Z,1.85
2022-10-02T04:56:33.003Z,2.75
2022-10-02T04:59:44.501Z,3.78
2022-10-02T05:02:18.347Z,2.65
2022-10-02T05:05:11.760Z,3.03
2022-10-02T05:07:55.459Z,2.78
2022-10-02T05:10:56.167Z,2.45
2022-10-02T05:13:32.942Z,1.55
2022-10-02T05:16:06.984Z,0.85
2022-10-02T05:18:58.392Z,2.50
2022-10-02T05:21:48.377Z,1.65
2022-10-02T05:24:40.810Z,2.88
2022-10-02T05:27:17.731Z,1.67
2022-10-02T05:33:03.656Z,2.97
2022-10-02T05:35:44.515Z,2.70
2022-10-02T05:38:36.827Z,3.75
2022-10-02T05:41:13.040Z,1.77
2022-10-02T05:43:55.817Z,3.58
2022-10-02T05:46:26.475Z,2.38
2022-10-02T05:49:12.214Z,4.15
2022-10-02T05:52:04.744Z,1.60
2022-10-02T05:54:55.688Z,2.50
2022-10-02T05:57:35.360Z,3.17
2022-10-02T06:00:29.722Z,12.48
2022-10-02T06:03:15.689Z,19.00
2022-10-02T06:05:55.548Z,18.63
2022-10-02T06:08:33.913Z,13.15
2022-10-02T06:11:09.486Z,11.15
2022-10-02T06:13:58.678Z,10.02
2022-10-02T06:16:30.189Z,7.80
2022-10-02T06:19:08.071Z,6.25
2022-10-02T06:21:54.856Z,11.20
2022-10-02T06:24:36.177Z,9.90
2022-10-02T06:27:36.125Z,7.85
2022-10-02T06:30:13.002Z,5.45
2022-10-02T06:33:13.126Z,6.22
2022-10-02T06:36:30.205Z,7.30
2022-10-02T06:39:24.480Z,5.63
2022-10-02T06:41:55.326Z,7.32
2022-10-02T06:44:23.616Z,10.95
2022-10-02T06:46:52.506Z,4.55
2022-10-02T06:49:46.773Z,6.82
2022-10-02T06:52:37.805Z,4.72
2022-10-02T06:55:27.111Z,3.53
2022-10-02T06:58:12.857Z,5.50
2022-10-02T07:00:56.495Z,2.70
2022-10-02T07:03:34.567Z,4.63
2022-10-02T07:06:10.216Z,5.40
2022-10-02T07:09:02.219Z,7.53
2022-10-02T07:12:11.241Z,7.38
2022-10-02T07:15:06.501Z,7.32
2022-10-02T07:17:40.370Z,5.85
2022-10-02T07:20:14.103Z,8.73
2022-10-02T07:23:10.123Z,9.75
2022-10-02T07:25:59.089Z,7.47
2022-10-02T07:29:01.331Z,4.80
2022-10-02T07:31:50.829Z,8.70
2022-10-02T07:34:29.852Z,8.82
2022-10-02T07:37:13.658Z,6.93
2022-10-02T07:40:18.998Z,4.70
2022-10-02T07:43:00.390Z,7.15
2022-10-02T07:45:39.252Z,5.97
2022-10-02T07:48:12.833Z,6.13
2022-10-02T07:50:43.491Z,4.55
2022-10-02T07:53:50.667Z,5.85
2022-10-02T07:56:22.790Z,6.68
2022-10-02T07:58:57.188Z,3.42
2022-10-02T08:01:28.683Z,3.75
2022-10-02T08:04:00.642Z,1.92
2022-10-02T08:06:28.406Z,2.17
2022-10-02T08:09:02.708Z,1.60
2022-10-02T08:13:21.097Z,2.30
2022-10-02T08:15:54.854Z,2.58
2022-10-02T08:18:35.891Z,1.92
2022-10-02T08:21:11.905Z,3.35
2022-10-02T08:23:44.107Z,1.25
2022-10-02T08:26:25.047Z,3.40
2022-10-02T08:29:35.266Z,3.38
2022-10-02T08:32:03.102Z,2.67
2022-10-02T08:34:31.614Z,1.92
2022-10-02T08:37:35.267Z,2.22
2022-10-02T08:40:24.829Z,3.45
2022-10-02T08:43:25.864Z,2.33
2022-10-02T08:46:15.320Z,3.05
2022-10-02T08:49:02.170Z,4.35
2022-10-02T08:51:52.039Z,3.45
2022-10-02T08:54:59.100Z,4.10
2022-10-02T08:57:48.372Z,2.70
2022-10-02T09:00:24.477Z,2.42
2022-10-02T09:02:58.937Z,3.20
2022-10-02T09:05:48.450Z,2.55
2022-10-02T09:08:51.317Z,2.92
2022-10-02T09:11:50.539Z,2.88
2022-10-02T09:14:35.113Z,2.30
2022-10-02T09:17:22.174Z,2.28
2022-10-02T09:20:21.938Z,2.72
2022-10-02T09:23:08.728Z,1.60
2022-10-02T09:25:50.908Z,3.28
2022-10-02T09:28:37.563Z,3.85
2022-10-02T09:31:40.363Z,4.55
2022-10-02T09:34:47.558Z,1.52
2022-10-02T09:37:24.978Z,3.10
2022-10-02T09:40:13.523Z,2.22
2022-10-02T09:43:06.101Z,3.00
2022-10-02T09:45:45.775Z,2.67
2022-10-02T09:48:46.297Z,3.08
2022-10-02T09:52:00.181Z,3.63
2022-10-02T09:54:34.856Z,2.28
2022-10-02T09:57:31.205Z,4.15
2022-10-02T10:00:19.137Z,2.53
2022-10-02T10:03:19.261Z,2.17
2022-10-02T10:06:16.076Z,4.00
2022-10-02T10:09:21.389Z,2.38
2022-10-02T10:11:52.323Z,5.50
2022-10-02T10:14:37.502Z,5.60
2022-10-02T10:17:14.278Z,7.13
2022-10-02T10:20:03.624Z,5.38
2022-10-02T10:22:51.366Z,3.22
2022-10-02T10:25:36.133Z,3.78
2022-10-02T10:28:33.975Z,5.75
2022-10-02T10:31:16.832Z,1.93
2022-10-02T10:34:03.626Z,2.70
2022-10-02T10:36:52.939Z,6.85
2022-10-02T10:39:39.994Z,6.20
2022-10-02T10:42:16.689Z,6.82
2022-10-02T10:45:09.149Z,4.32
2022-10-02T10:48:03.373Z,5.47
2022-10-02T10:50:54.161Z,5.10
2022-10-02T10:53:49.226Z,4.60
2022-10-02T10:56:38.210Z,4.10
2022-10-02T11:00:02.368Z,3.78
2022-10-02T11:02:44.625Z,4.40
2022-10-02T11:05:37.382Z,5.57
2022-10-02T11:08:22.488Z,3.55
2022-10-02T11:11:09.745Z,4.03
2022-10-02T11:13:54.695Z,3.70
2022-10-02T11:16:35.504Z,3.50
2022-10-02T11:19:27.423Z,7.22
2022-10-02T11:22:10.393Z,2.97
2022-10-02T11:25:02.033Z,15.93
2022-10-02T11:28:04.170Z,9.23
2022-10-02T11:30:39.435Z,8.00
2022-10-02T11:33:12.085Z,4.82
2022-10-02T11:36:04.672Z,9.43
2022-10-02T11:38:51.315Z,4.70
2022-10-02T11:41:46.841Z,6.77
2022-10-02T11:44:29.315Z,6.43
2022-10-02T11:47:02.827Z,4.32
2022-10-02T11:49:45.720Z,7.20
2022-10-02T11:52:45.930Z,4.82
2022-10-02T11:55:34.714Z,5.80
2022-10-02T11:58:21.013Z,4.97
2022-10-02T12:01:05.931Z,7.63
2022-10-02T12:03:53.649Z,5.10
2022-10-02T12:06:42.301Z,5.32
2022-10-02T12:09:25.881Z,3.60
2022-10-02T12:12:02.462Z,4.40
2022-10-02T12:15:09.663Z,5.30
2022-10-02T12:18:21.809Z,3.55
2022-10-02T12:21:31.225Z,3.45
2022-10-02T12:24:40.935Z,5.50
2022-10-02T12:27:17.241Z,3.83
2022-10-02T12:29:56.882Z,4.00
2022-10-02T12:32:43.637Z,5.53
2022-10-02T12:35:31.604Z,4.93
2022-10-02T12:38:18.209Z,4.65
2022-10-02T12:40:48.672Z,3.15
2022-10-02T12:43:43.160Z,3.20
2022-10-02T12:46:29.150Z,4.22
2022-10-02T12:49:28.635Z,3.17
2022-10-02T12:52:40.660Z,3.97
2022-10-02T12:55:46.134Z,3.90
2022-10-02T12:58:13.944Z,3.97
2022-10-02T13:01:30.869Z,4.18
2022-10-02T13:04:11.475Z,4.35
2022-10-02T13:07:12.270Z,2.78
2022-10-02T13:10:05.720Z,3.97
2022-10-02T13:13:00.969Z,7.55
2022-10-02T13:15:48.773Z,3.10
2022-10-02T13:18:33.972Z,4.10
2022-10-02T13:21:11.591Z,7.20
2022-10-02T13:23:58.235Z,6.65
2022-10-02T13:26:31.981Z,6.70
2022-10-02T13:29:18.513Z,4.47
2022-10-02T13:31:57.100Z,3.00
2022-10-02T13:34:27.779Z,3.55
2022-10-02T13:37:09.027Z,5.15
2022-10-02T13:39:36.619Z,5.07
2022-10-02T13:42:45.832Z,3.78
2022-10-02T13:45:36.358Z,2.70
2022-10-02T13:48:09.898Z,2.25
2022-10-02T13:50:48.040Z,3.45
2022-10-02T13:53:43.238Z,3.20
2022-10-02T13:56:36.530Z,2.20
2022-10-02T13:59:27.509Z,3.88
2022-10-02T14:02:13.654Z,2.35
2022-10-02T14:05:28.945Z,5.95
2022-10-02T14:08:39.295Z,1.65
2022-10-02T14:11:25.378Z,1.67
2022-10-02T14:14:23.524Z,3.20
2022-10-02T14:17:26.289Z,2.83
2022-10-02T14:20:08.839Z,1.67
2022-10-02T14:23:02.718Z,2.42
2022-10-02T14:25:30.617Z,1.27
2022-10-02T14:28:10.680Z,2.45
2022-10-02T14:31:17.523Z,1.88
2022-10-02T14:34:07.082Z,3.83
2022-10-02T14:36:43.096Z,2.22
2022-10-02T14:39:24.787Z,3.97
2022-10-02T14:42:24.191Z,2.78
2022-10-02T14:45:11.141Z,3.38
2022-10-02T14:47:56.273Z,3.03
2022-10-02T14:50:51.024Z,3.03
2022-10-02T14:53:30.771Z,2.65
2022-10-02T14:56:30.114Z,2.10
2022-10-02T14:59:22.598Z,1.65
2022-10-02T15:01:56.496Z,3.92
2022-10-02T15:04:43.045Z,1.58
2022-10-02T15:07:15.449Z,2.30
2022-10-02T15:10:00.041Z,2.25
2022-10-02T15:12:53.126Z,1.85
2022-10-02T15:15:39.813Z,2.30
2022-10-02T15:18:44.763Z,2.38
2022-10-02T15:21:27.008Z,1.98
2022-10-02T15:23:58.460Z,2.75
2022-10-02T15:26:54.925Z,2.38
2022-10-02T15:29:47.091Z,2.95
2022-10-02T15:32:39.868Z,3.83
2022-10-02T15:35:39.270Z,2.58
2022-10-02T15:38:30.858Z,2.88
2022-10-02T15:41:32.174Z,3.28
2022-10-02T15:44:12.236Z,3.08
2022-10-02T15:46:42.971Z,3.08
2022-10-02T15:50:00.973Z,3.20
2022-10-02T15:53:15.352Z,3.53
2022-10-02T15:55:53.961Z,2.90
2022-10-02T15:58:40.527Z,7.22
2022-10-02T16:01:41.455Z,4.37
2022-10-02T16:04:23.321Z,4.32
2022-10-02T16:07:15.614Z,3.85
2022-10-02T16:09:58.612Z,2.33
2022-10-02T16:12:42.766Z,2.42
2022-10-02T16:15:27.631Z,2.20
2022-10-02T16:18:14.050Z,6.10
2022-10-02T16:21:18.852Z,2.75
2022-10-02T16:24:29.955Z,2.40
2022-10-02T16:27:35.147Z,3.05
2022-10-02T16:30:12.649Z,2.08
2022-10-02T16:32:45.972Z,1.70
2022-10-02T16:35:25.489Z,3.45
2022-10-02T16:38:07.714Z,1.42
2022-10-02T16:40:43.056Z,2.75
2022-10-02T16:43:42.465Z,3.22
2022-10-02T16:46:26.077Z,2.45
2022-10-02T16:49:09.422Z,1.13
2022-10-02T16:51:51.992Z,2.53
2022-10-02T16:54:26.345Z,4.82
2022-10-02T16:56:57.079Z,2.33
2022-10-02T16:59:38.604Z,2.40
2022-10-02T17:02:26.682Z,1.52
2022-10-02T17:05:16.905Z,3.88
2022-10-02T17:08:10.892Z,3.22
2022-10-02T17:10:47.174Z,2.00
2022-10-02T17:13:19.856Z,2.88
2022-10-02T17:15:56.194Z,1.98
2022-10-02T17:18:45.684Z,2.92
2022-10-02T17:21:29.201Z,3.97
2022-10-02T17:24:38.267Z,2.20
2022-10-02T17:27:21.310Z,1.65
2022-10-02T17:30:08.497Z,2.30
2022-10-02T17:32:53.308Z,2.70
2022-10-02T17:35:24.013Z,2.13
2022-10-02T17:38:10.185Z,1.58
2022-10-02T17:40:51.148Z,3.17
2022-10-02T17:43:31.614Z,2.42
2022-10-02T17:46:19.233Z,7.10
2022-10-02T17:48:52.088Z,7.57
2022-10-02T17:51:51.887Z,9.32
2022-10-02T17:55:15.958Z,18.05
2022-10-02T17:57:52.740Z,16.38
2022-10-02T18:00:24.811Z,13.00
2022-10-02T18:03:26.699Z,8.80
2022-10-02T18:06:19.833Z,8.02
2022-10-02T18:09:23.022Z,9.45
2022-10-02T18:12:16.705Z,9.00
2022-10-02T18:15:15.657Z,7.05
2022-10-02T18:17:53.172Z,5.97
2022-10-02T18:20:44.033Z,5.78
2022-10-02T18:23:40.969Z,5.75
2022-10-02T18:26:09.429Z,6.27
2022-10-02T18:28:46.717Z,6.07
2022-10-02T18:31:58.251Z,6.22
2022-10-02T18:34:47.599Z,4.97
2022-10-02T18:37:15.203Z,8.70
2022-10-02T18:39:58.311Z,9.90
2022-10-02T18:42:40.102Z,6.05
2022-10-02T18:45:45.128Z,6.05
2022-10-02T18:48:44.597Z,11.30
2022-10-02T18:51:23.943Z,7.80
2022-10-02T18:54:34.911Z,8.75
2022-10-02T18:57:08.980Z,9.82
2022-10-02T19:00:02.012Z,8.23
2022-10-02T19:03:09.008Z,16.77
2022-10-02T19:05:57.989Z,13.93
2022-10-02T19:08:51.061Z,12.77
2022-10-02T19:11:19.696Z,8.20
2022-10-02T19:13:49.133Z,7.28
2022-10-02T19:16:27.264Z,8.27
2022-10-02T19:19:17.031Z,8.57
2022-10-02T19:21:45.479Z,9.68
2022-10-02T19:24:16.723Z,5.75
2022-10-02T19:26:52.273Z,5.10
2022-10-02T19:29:32.460Z,4.75
2022-10-02T19:32:10.170Z,4.28
2022-10-02T19:34:38.094Z,4.07
2022-10-02T19:37:07.963Z,10.38
2022-10-02T19:39:41.523Z,5.50
2022-10-02T19:42:17.257Z,5.05
2022-10-02T19:44:51.566Z,4.72
2022-10-02T19:47:31.962Z,5.43
2022-10-02T19:50:01.822Z,5.95
2022-10-02T19:52:46.424Z,6.82
2022-10-02T19:55:20.704Z,4.20
2022-10-02T19:57:50.852Z,4.32
2022-10-02T20:00:20.452Z,8.00
2022-10-02T20:02:53.837Z,7.70
2022-10-02T20:05:27.162Z,9.82
2022-10-02T20:08:07.094Z,10.38
2022-10-02T20:10:42.882Z,13.68
2022-10-02T20:13:20.238Z,10.30
2022-10-02T20:16:25.178Z,9.00
2022-10-02T20:18:53.152Z,7.90
2022-10-02T20:21:55.370Z,6.97
2022-10-02T20:25:01.098Z,7.03
2022-10-02T20:27:47.172Z,9.90
2022-10-02T20:30:24.582Z,9.10
2022-10-02T20:33:18.256Z,6.82
2022-10-02T20:36:01.741Z,7.72
2022-10-02T20:38:52.506Z,7.82
2022-10-02T20:41:31.232Z,5.88
2022-10-02T20:44:08.497Z,6.38
2022-10-02T20:47:07.129Z,6.80
2022-10-02T20:49:52.817Z,6.43
2022-10-02T20:52:43.137Z,4.95
2022-10-02T20:55:19.466Z,4.85
2022-10-02T20:58:01.479Z,6.07
2022-10-02T21:00:53.250Z,17.60
2022-10-02T21:03:35.549Z,5.85
2022-10-02T21:06:29.469Z,4.88
2022-10-02T21:09:16.643Z,4.75
2022-10-02T21:12:23.561Z,4.68
2022-10-02T21:15:15.944Z,4.40
2022-10-02T21:18:11.400Z,5.75
2022-10-02T21:20:55.717Z,5.82
2022-10-02T21:24:02.629Z,7.10
2022-10-02T21:27:09.455Z,6.70
2022-10-02T21:30:02.862Z,5.32
2022-10-02T21:33:04.256Z,5.38
2022-10-02T21:35:36.029Z,4.68
2022-10-02T21:38:19.946Z,4.22
2022-10-02T21:41:16.503Z,4.15
2022-10-02T21:44:08.820Z,4.78
2022-10-02T21:47:02.769Z,3.97
2022-10-02T21:50:08.699Z,3.30
2022-10-02T21:53:11.467Z,3.47
2022-10-02T21:55:45.383Z,6.50
2022-10-02T21:58:28.489Z,5.40
2022-10-02T22:01:42.762Z,5.60
2022-10-02T22:04:28.529Z,4.07
2022-10-02T22:09:58.033Z,6.20
2022-10-02T22:12:56.676Z,3.33
2022-10-02T22:15:39.653Z,4.00
2022-10-02T22:18:12.941Z,4.85
2022-10-02T22:21:05.158Z,3.75
2022-10-02T22:23:35.893Z,4.45
2022-10-02T22:26:22.586Z,4.70
2022-10-02T22:28:59.890Z,5.22
2022-10-02T22:32:21.589Z,4.28
2022-10-02T22:34:58.247Z,5.60
2022-10-02T22:37:46.762Z,3.78
2022-10-02T22:40:23.411Z,3.20
2022-10-02T22:45:50.930Z,3.88
2022-10-02T22:48:35.985Z,3.65
2022-10-02T22:51:21.993Z,3.92
2022-10-02T22:53:58.898Z,4.35
2022-10-02T22:59:22.443Z,4.35
2022-10-02T23:02:22.382Z,3.53
2022-10-02T23:05:02.102Z,4.32
2022-10-02T23:08:00.003Z,3.22
2022-10-02T23:13:22.557Z,5.53
2022-10-02T23:16:02.890Z,4.25
2022-10-02T23:18:49.372Z,4.25
2022-10-02T23:21:33.417Z,2.20
2022-10-02T23:24:13.005Z,2.33
2022-10-02T23:26:56.824Z,3.33
2022-10-02T23:29:49.671Z,2.83
2022-10-02T23:32:33.141Z,3.15
2022-10-02T23:35:21.067Z,2.70
2022-10-02T23:37:48.644Z,4.95
2022-10-02T23:40:50.426Z,2.80
2022-10-02T23:43:59.754Z,2.65
2022-10-02T23:46:50.886Z,3.40
2022-10-02T23:49:21.792Z,3.95
2022-10-02T23:52:19.882Z,2.53
2022-10-02T23:54:50.484Z,2.42
2022-10-02T23:57:29.855Z,3.17
